createdAt,value
2018-07-26T00:02:24.172Z,24.50
2018-07-26T00:04:51.554Z,24.40
2018-07-26T00:09:46.355Z,24.40
2018-07-26T00:12:14.086Z,24.40
2018-07-26T00:14:41.493Z,24.40
2018-07-26T00:17:09.145Z,24.30
2018-07-26T00:19:36.655Z,24.30
2018-07-26T00:22:04.225Z,24.30
2018-07-26T00:26:59.063Z,24.30
2018-07-26T00:29:26.411Z,24.30
2018-07-26T00:31:57.374Z,24.30
2018-07-26T00:34:24.735Z,24.20
2018-07-26T00:36:52.106Z,24.20
2018-07-26T00:39:20.067Z,24.20
2018-07-26T00:41:47.439Z,24.20
2018-07-26T00:44:15.211Z,24.20
2018-07-26T00:46:42.579Z,24.20
2018-07-26T00:49:09.956Z,24.10
2018-07-26T00:51:37.451Z,24.10
2018-07-26T00:54:08.027Z,24.10
2018-07-26T00:56:35.698Z,24.10
2018-07-26T00:59:03.431Z,24.00
2018-07-26T01:01:30.816Z,24.00
2018-07-26T01:03:58.266Z,24.00
2018-07-26T01:06:25.687Z,23.90
2018-07-26T01:08:53.058Z,23.80
2018-07-26T01:11:20.467Z,23.80
2018-07-26T01:13:47.935Z,23.80
2018-07-26T01:16:15.238Z,23.80
2018-07-26T01:18:42.451Z,23.70
2018-07-26T01:21:09.703Z,23.70
2018-07-26T01:23:37.019Z,23.70
2018-07-26T01:26:04.290Z,23.60
2018-07-26T01:28:31.634Z,23.60
2018-07-26T01:30:58.950Z,23.50
2018-07-26T01:33:26.183Z,23.50
2018-07-26T01:35:53.442Z,23.50
2018-07-26T01:38:20.691Z,23.50
2018-07-26T01:40:48.011Z,23.50
2018-07-26T01:43:52.561Z,23.40
2018-07-26T01:46:21.431Z,23.40
2018-07-26T01:48:48.676Z,23.30
2018-07-26T01:51:15.935Z,23.30
2018-07-26T01:53:43.881Z,23.30
2018-07-26T01:56:11.135Z,23.20
2018-07-26T01:58:38.442Z,23.20
2018-07-26T02:01:07.158Z,23.20
2018-07-26T02:03:34.460Z,23.20
2018-07-26T02:06:01.819Z,23.20
2018-07-26T02:08:30.027Z,23.20
2018-07-26T02:10:57.535Z,23.20
2018-07-26T02:13:25.663Z,23.20
2018-07-26T02:15:53.295Z,23.20
2018-07-26T02:18:20.547Z,23.10
2018-07-26T02:20:47.779Z,23.10
2018-07-26T02:23:14.979Z,23.10
2018-07-26T02:25:42.310Z,23.10
2018-07-26T02:28:09.590Z,23.00
2018-07-26T02:30:36.886Z,23.00
2018-07-26T02:33:05.973Z,23.00
2018-07-26T02:35:33.221Z,23.00
2018-07-26T02:38:00.443Z,22.90
2018-07-26T02:40:27.684Z,23.00
2018-07-26T02:42:54.916Z,22.90
2018-07-26T02:45:22.544Z,22.90
2018-07-26T02:47:49.764Z,22.90
2018-07-26T02:50:16.994Z,22.90
2018-07-26T02:52:44.220Z,22.90
2018-07-26T02:55:11.423Z,22.80
2018-07-26T02:57:40.573Z,22.80
2018-07-26T03:00:07.998Z,22.70
2018-07-26T03:02:35.208Z,22.70
2018-07-26T03:05:02.394Z,22.70
2018-07-26T03:07:29.584Z,22.60
2018-07-26T03:09:56.795Z,22.60
2018-07-26T03:12:23.988Z,22.60
2018-07-26T03:14:51.135Z,22.60
2018-07-26T03:17:18.331Z,22.70
2018-07-26T03:19:45.579Z,22.60
2018-07-26T03:22:12.751Z,22.60
2018-07-26T03:24:41.182Z,22.50
2018-07-26T03:27:08.379Z,22.50
2018-07-26T03:29:35.574Z,22.50
2018-07-26T03:32:02.735Z,22.50
2018-07-26T03:34:29.886Z,22.40
2018-07-26T03:36:57.131Z,22.40
2018-07-26T03:39:24.286Z,22.40
2018-07-26T03:41:51.478Z,22.30
2018-07-26T03:44:18.631Z,22.40
2018-07-26T03:46:45.799Z,22.30
2018-07-26T03:49:13.027Z,22.30
2018-07-26T03:51:40.206Z,22.30
2018-07-26T03:54:07.390Z,22.30
2018-07-26T03:56:34.555Z,22.30
2018-07-26T03:59:01.748Z,22.30
2018-07-26T04:01:29.207Z,22.30
2018-07-26T04:03:56.435Z,22.30
2018-07-26T04:06:23.717Z,22.30
2018-07-26T04:08:51.014Z,22.30
2018-07-26T04:11:18.439Z,22.30
2018-07-26T04:13:45.668Z,22.30
2018-07-26T04:16:12.891Z,22.30
2018-07-26T04:18:40.113Z,22.40
2018-07-26T04:21:07.355Z,22.30
2018-07-26T04:23:34.555Z,22.30
2018-07-26T04:26:01.814Z,22.40
2018-07-26T04:28:29.071Z,22.40
2018-07-26T04:30:56.284Z,22.40
2018-07-26T04:33:23.715Z,22.40
2018-07-26T04:35:50.918Z,22.50
2018-07-26T04:38:18.176Z,22.50
2018-07-26T04:40:45.407Z,22.50
2018-07-26T04:45:39.863Z,22.70
2018-07-26T04:48:07.388Z,22.80
2018-07-26T04:50:34.599Z,22.80
2018-07-26T04:53:01.804Z,22.80
2018-07-26T04:55:29.114Z,22.70
2018-07-26T04:57:56.367Z,22.70
2018-07-26T05:00:23.628Z,22.80
2018-07-26T05:02:50.810Z,22.80
2018-07-26T05:05:18.070Z,22.90
2018-07-26T05:07:45.228Z,22.90
2018-07-26T05:10:12.407Z,22.90
2018-07-26T05:12:39.634Z,22.90
2018-07-26T05:15:07.023Z,23.00
2018-07-26T05:17:34.207Z,23.00
2018-07-26T05:20:01.408Z,23.10
2018-07-26T05:22:28.579Z,23.30
2018-07-26T05:24:55.768Z,23.60
2018-07-26T05:27:23.031Z,24.00
2018-07-26T05:29:50.199Z,24.50
2018-07-26T05:32:17.351Z,25.00
2018-07-26T05:34:44.679Z,25.60
2018-07-26T05:37:11.927Z,26.30
2018-07-26T05:39:39.095Z,26.80
2018-07-26T05:42:06.291Z,27.20
2018-07-26T05:44:33.674Z,27.70
2018-07-26T05:47:01.038Z,28.00
2018-07-26T05:49:28.426Z,28.10
2018-07-26T05:51:55.930Z,28.00
2018-07-26T05:54:23.374Z,28.00
2018-07-26T05:56:50.808Z,27.70
2018-07-26T05:59:18.251Z,27.50
2018-07-26T06:01:45.766Z,27.30
2018-07-26T06:07:25.639Z,26.90
2018-07-26T06:09:53.068Z,26.70
2018-07-26T06:12:21.589Z,26.50
2018-07-26T06:14:49.107Z,26.50
2018-07-26T06:17:16.565Z,26.40
2018-07-26T06:19:44.092Z,26.30
2018-07-26T06:22:11.540Z,26.30
2018-07-26T06:24:39.074Z,26.30
2018-07-26T06:27:06.527Z,26.30
2018-07-26T06:29:34.008Z,26.30
2018-07-26T06:32:01.485Z,26.30
2018-07-26T06:34:28.921Z,26.30
2018-07-26T06:36:56.504Z,26.40
2018-07-26T06:39:23.979Z,26.40
2018-07-26T06:41:51.408Z,26.50
2018-07-26T06:44:18.894Z,26.50
2018-07-26T06:46:46.318Z,26.60
2018-07-26T06:49:13.748Z,26.60
2018-07-26T06:51:41.225Z,26.80
2018-07-26T06:54:08.789Z,26.80
2018-07-26T06:56:36.244Z,26.90
2018-07-26T06:59:03.768Z,27.00
2018-07-26T07:01:31.215Z,26.90
2018-07-26T07:03:58.748Z,27.00
2018-07-26T07:06:26.268Z,27.10
2018-07-26T07:11:22.235Z,27.30
2018-07-26T07:13:49.840Z,27.50
2018-07-26T07:16:17.307Z,27.60
2018-07-26T07:18:44.736Z,27.80
2018-07-26T07:21:13.972Z,27.90
2018-07-26T07:23:41.557Z,28.00
2018-07-26T07:26:09.054Z,28.00
2018-07-26T07:31:04.015Z,28.20
2018-07-26T07:33:31.446Z,28.40
2018-07-26T07:35:58.899Z,28.50
2018-07-26T07:38:26.321Z,28.60
2018-07-26T07:43:21.284Z,28.70
2018-07-26T07:45:48.742Z,28.80
2018-07-26T07:48:16.207Z,28.90
2018-07-26T07:50:43.631Z,29.00
2018-07-26T07:53:11.047Z,29.10
2018-07-26T07:55:38.487Z,29.20
2018-07-26T07:58:06.028Z,29.40
2018-07-26T08:00:33.536Z,29.50
2018-07-26T08:03:00.938Z,29.80
2018-07-26T08:05:28.443Z,29.90
2018-07-26T08:07:55.869Z,30.10
2018-07-26T08:10:23.315Z,30.30
2018-07-26T08:12:50.835Z,30.40
2018-07-26T08:15:18.257Z,30.50
2018-07-26T08:17:45.680Z,30.60
2018-07-26T08:22:40.719Z,30.80
2018-07-26T08:30:05.625Z,30.90
2018-07-26T08:32:33.087Z,30.90
2018-07-26T08:35:00.691Z,31.00
2018-07-26T08:37:28.182Z,31.00
2018-07-26T08:39:55.642Z,31.10
2018-07-26T08:44:50.959Z,31.40
2018-07-26T08:49:45.856Z,31.50
2018-07-26T08:52:13.324Z,31.50
2018-07-26T08:54:40.731Z,31.70
2018-07-26T08:57:08.247Z,31.90
2018-07-26T09:02:03.157Z,32.40
2018-07-26T09:04:30.671Z,32.50
2018-07-26T09:06:58.111Z,32.70
2018-07-26T09:14:20.625Z,32.70
2018-07-26T09:16:48.103Z,32.80
2018-07-26T09:19:15.626Z,33.00
2018-07-26T09:21:43.116Z,33.00
2018-07-26T09:24:10.643Z,33.10
2018-07-26T09:26:38.098Z,33.10
2018-07-26T09:29:05.591Z,33.20
2018-07-26T09:31:33.068Z,33.30
2018-07-26T09:36:27.952Z,33.50
2018-07-26T09:38:55.366Z,33.50
2018-07-26T09:41:22.825Z,33.70
2018-07-26T09:43:50.351Z,33.80
2018-07-26T09:46:17.735Z,34.00
2018-07-26T09:53:39.999Z,34.50
2018-07-26T09:56:07.420Z,34.70
2018-07-26T09:58:34.839Z,35.00
2018-07-26T10:01:08.108Z,35.10
2018-07-26T10:03:35.615Z,35.10
2018-07-26T10:06:03.163Z,35.10
2018-07-26T10:08:30.627Z,35.20
2018-07-26T10:10:58.039Z,35.50
2018-07-26T10:13:25.467Z,35.70
2018-07-26T10:15:52.949Z,36.00
2018-07-26T10:18:20.303Z,36.30
2018-07-26T10:20:47.792Z,36.60
2018-07-26T10:23:15.211Z,36.90
2018-07-26T10:25:42.636Z,37.20
2018-07-26T10:28:10.086Z,37.10
2018-07-26T10:30:37.607Z,37.10
2018-07-26T10:33:05.148Z,37.00
2018-07-26T10:35:32.569Z,37.30
2018-07-26T10:38:00.140Z,37.40
2018-07-26T10:40:27.719Z,37.60
2018-07-26T10:42:55.248Z,37.80
2018-07-26T10:45:22.660Z,37.50
2018-07-26T10:50:17.495Z,37.60
2018-07-26T10:52:44.979Z,37.90
2018-07-26T10:55:12.399Z,38.00
2018-07-26T10:57:39.848Z,38.00
2018-07-26T11:00:08.339Z,38.30
2018-07-26T11:02:35.964Z,38.40
2018-07-26T11:07:31.931Z,38.20
2018-07-26T11:09:59.357Z,38.10
2018-07-26T11:12:26.781Z,38.10
2018-07-26T11:14:59.979Z,38.20
2018-07-26T11:17:27.363Z,38.30
2018-07-26T11:19:54.870Z,38.40
2018-07-26T11:22:22.304Z,38.50
2018-07-26T11:24:56.487Z,38.70
2018-07-26T11:27:24.907Z,38.90
2018-07-26T11:29:52.400Z,38.80
2018-07-26T11:32:19.989Z,38.60
2018-07-26T11:34:47.407Z,38.70
2018-07-26T11:37:14.848Z,39.10
2018-07-26T11:39:42.363Z,39.40
2018-07-26T11:47:04.823Z,39.70
2018-07-26T11:49:32.231Z,39.70
2018-07-26T11:51:59.732Z,39.60
2018-07-26T11:54:27.147Z,39.50
2018-07-26T11:59:22.092Z,39.10
2018-07-26T12:01:49.526Z,39.20
2018-07-26T12:04:16.906Z,39.20
2018-07-26T12:06:44.399Z,39.10
2018-07-26T12:09:11.820Z,39.10
2018-07-26T12:11:39.767Z,39.20
2018-07-26T12:14:07.823Z,39.00
2018-07-26T12:16:35.232Z,38.60
2018-07-26T12:19:02.691Z,38.80
2018-07-26T12:21:30.167Z,38.60
2018-07-26T12:23:57.574Z,38.90
2018-07-26T12:26:24.994Z,39.10
2018-07-26T12:28:52.416Z,39.00
2018-07-26T12:31:19.876Z,39.20
2018-07-26T12:33:47.278Z,39.40
2018-07-26T12:36:14.708Z,39.50
2018-07-26T12:38:42.223Z,39.30
2018-07-26T12:41:09.667Z,39.40
2018-07-26T12:43:37.344Z,39.40
2018-07-26T12:46:04.816Z,39.00
2018-07-26T12:48:32.255Z,39.00
2018-07-26T12:53:27.587Z,39.40
2018-07-26T12:55:55.011Z,39.60
2018-07-26T12:58:22.427Z,39.80
2018-07-26T13:00:49.806Z,39.90
2018-07-26T13:03:17.299Z,39.80
2018-07-26T13:05:44.731Z,39.70
2018-07-26T13:08:12.176Z,39.40
2018-07-26T13:10:39.612Z,39.40
2018-07-26T13:13:07.123Z,39.40
2018-07-26T13:18:02.294Z,39.20
2018-07-26T13:20:29.804Z,39.10
2018-07-26T13:22:57.251Z,39.00
2018-07-26T13:25:24.734Z,39.00
2018-07-26T13:27:52.167Z,39.30
2018-07-26T13:30:19.672Z,39.40
2018-07-26T13:32:47.107Z,39.30
2018-07-26T13:35:14.551Z,39.40
2018-07-26T13:37:41.964Z,39.40
2018-07-26T13:40:09.471Z,39.50
2018-07-26T13:42:36.946Z,39.70
2018-07-26T13:45:04.623Z,39.80
2018-07-26T13:47:32.059Z,39.90
2018-07-26T13:49:59.475Z,39.60
2018-07-26T13:52:26.979Z,39.20
2018-07-26T13:54:54.307Z,39.20
2018-07-26T13:59:49.195Z,39.10
2018-07-26T14:02:16.737Z,39.10
2018-07-26T14:04:44.148Z,39.10
2018-07-26T14:09:39.045Z,38.80
2018-07-26T14:12:06.474Z,38.50
2018-07-26T14:14:33.887Z,38.60
2018-07-26T14:17:01.324Z,38.70
2018-07-26T14:19:28.771Z,38.80
2018-07-26T14:26:52.590Z,38.80
2018-07-26T14:29:19.983Z,38.90
2018-07-26T14:31:47.248Z,38.70
2018-07-26T14:34:14.495Z,38.80
2018-07-26T14:36:42.243Z,38.80
2018-07-26T14:39:10.220Z,38.80
2018-07-26T14:41:38.040Z,38.70
2018-07-26T14:46:32.672Z,38.40
2018-07-26T14:48:59.923Z,38.30
2018-07-26T14:51:27.199Z,38.20
2018-07-26T14:53:54.640Z,38.10
2018-07-26T14:56:22.005Z,38.10
2018-07-26T14:58:49.382Z,38.20
2018-07-26T15:01:17.078Z,38.10
2018-07-26T15:03:44.302Z,38.10
2018-07-26T15:06:12.752Z,38.20
2018-07-26T15:08:42.154Z,38.20
2018-07-26T15:11:09.411Z,38.20
2018-07-26T15:13:36.724Z,38.20
2018-07-26T15:18:31.353Z,38.20
2018-07-26T15:20:58.615Z,38.20
2018-07-26T15:23:27.016Z,38.10
2018-07-26T15:25:54.275Z,38.10
2018-07-26T15:28:21.510Z,38.00
2018-07-26T15:30:48.746Z,37.90
2018-07-26T15:33:16.007Z,37.80
2018-07-26T15:35:43.296Z,37.80
2018-07-26T15:38:10.565Z,37.60
2018-07-26T15:40:37.823Z,37.50
2018-07-26T15:43:05.716Z,37.40
2018-07-26T15:52:54.788Z,37.10
2018-07-26T15:55:22.017Z,37.00
2018-07-26T15:57:49.287Z,36.80
2018-07-26T16:00:16.528Z,36.80
2018-07-26T16:02:43.848Z,36.50
2018-07-26T16:05:12.292Z,36.40
2018-07-26T16:07:39.551Z,36.40
2018-07-26T16:10:07.720Z,36.30
2018-07-26T16:12:35.089Z,36.30
2018-07-26T16:19:57.743Z,36.30
2018-07-26T16:22:25.071Z,36.10
2018-07-26T16:24:52.244Z,36.10
2018-07-26T16:27:19.512Z,36.10
2018-07-26T16:29:46.763Z,36.00
2018-07-26T16:32:14.012Z,36.00
2018-07-26T16:34:41.255Z,36.00
2018-07-26T16:37:08.582Z,35.90
2018-07-26T16:39:35.890Z,35.90
2018-07-26T16:42:03.284Z,35.90
2018-07-26T16:44:30.612Z,35.60
2018-07-26T16:49:25.195Z,35.60
2018-07-26T16:51:52.478Z,35.60
2018-07-26T16:56:47.000Z,35.60
2018-07-26T17:01:41.487Z,35.50
2018-07-26T17:04:08.724Z,35.40
2018-07-26T17:06:35.979Z,35.40
2018-07-26T17:09:05.620Z,35.30
2018-07-26T17:16:27.345Z,35.40
2018-07-26T17:18:54.750Z,35.30
2018-07-26T17:21:21.819Z,35.30
2018-07-26T17:23:49.054Z,35.30
2018-07-26T17:26:16.340Z,35.20
2018-07-26T17:28:43.642Z,35.20
2018-07-26T17:31:10.887Z,35.20
2018-07-26T17:36:05.370Z,35.20
2018-07-26T17:38:32.618Z,35.10
2018-07-26T17:40:59.835Z,35.00
2018-07-26T17:43:27.051Z,34.90
2018-07-26T17:45:54.301Z,34.90
2018-07-26T17:48:21.551Z,34.80
2018-07-26T17:50:48.770Z,34.70
2018-07-26T17:53:17.128Z,34.70
2018-07-26T17:55:44.471Z,34.70
2018-07-26T17:58:11.711Z,34.70
2018-07-26T18:00:38.939Z,34.70
2018-07-26T18:05:33.547Z,34.40
2018-07-26T18:10:28.004Z,34.40
2018-07-26T18:12:55.280Z,34.20
2018-07-26T18:15:22.634Z,34.10
2018-07-26T18:17:49.939Z,34.00
2018-07-26T18:20:17.189Z,33.80
2018-07-26T18:22:44.416Z,33.70
2018-07-26T18:25:11.647Z,33.80
2018-07-26T18:27:39.405Z,33.60
2018-07-26T18:30:07.389Z,33.60
2018-07-26T18:32:34.796Z,33.60
2018-07-26T18:35:02.170Z,33.60
2018-07-26T18:37:29.473Z,33.50
2018-07-26T18:39:56.736Z,33.50
2018-07-26T18:42:24.051Z,33.40
2018-07-26T18:44:51.430Z,33.30
2018-07-26T18:47:18.712Z,33.30
2018-07-26T18:49:45.977Z,33.30
2018-07-26T18:52:13.284Z,33.30
2018-07-26T18:54:40.753Z,33.20
2018-07-26T18:57:08.448Z,33.20
2018-07-26T18:59:38.307Z,33.00
2018-07-26T19:02:06.685Z,32.90
2018-07-26T19:07:02.631Z,33.00
2018-07-26T19:09:30.130Z,32.90
2018-07-26T19:12:00.211Z,32.90
2018-07-26T19:14:27.951Z,32.80
2018-07-26T19:16:58.567Z,32.80
2018-07-26T19:19:26.404Z,32.70
2018-07-26T19:21:53.949Z,32.70
2018-07-26T19:24:21.179Z,32.60
2018-07-26T19:26:48.440Z,32.50
2018-07-26T19:29:15.676Z,32.50
2018-07-26T19:31:43.135Z,32.50
2018-07-26T19:44:02.019Z,32.10
2018-07-26T19:46:30.495Z,32.00
2018-07-26T19:48:58.036Z,31.90
2018-07-26T19:51:25.551Z,31.80
2018-07-26T19:53:53.024Z,31.70
2018-07-26T19:58:49.858Z,31.50
2018-07-26T20:01:17.351Z,31.50
2018-07-26T20:03:44.849Z,31.40
2018-07-26T20:06:17.114Z,31.40
2018-07-26T20:08:44.571Z,31.30
2018-07-26T20:11:12.118Z,31.30
2018-07-26T20:13:39.589Z,31.20
2018-07-26T20:16:13.113Z,31.10
2018-07-26T20:18:40.488Z,31.00
2018-07-26T20:21:07.721Z,31.00
2018-07-26T20:23:34.992Z,30.90
2018-07-26T20:26:02.255Z,30.90
2018-07-26T20:28:29.507Z,30.90
2018-07-26T20:30:56.744Z,30.80
2018-07-26T20:33:23.975Z,30.80
2018-07-26T20:35:51.265Z,30.70
2018-07-26T20:38:18.515Z,30.60
2018-07-26T20:40:45.923Z,30.60
2018-07-26T20:43:13.391Z,30.40
2018-07-26T20:45:40.875Z,30.40
2018-07-26T20:48:08.337Z,30.30
2018-07-26T20:50:35.960Z,30.30
2018-07-26T20:53:03.488Z,30.20
2018-07-26T20:57:58.344Z,30.20
2018-07-26T21:00:25.807Z,30.20
2018-07-26T21:02:53.250Z,30.20
2018-07-26T21:05:25.542Z,30.10
2018-07-26T21:07:53.001Z,30.20
2018-07-26T21:10:26.549Z,30.20
2018-07-26T21:12:53.879Z,30.20
2018-07-26T21:15:21.129Z,30.10
2018-07-26T21:17:48.444Z,30.10
2018-07-26T21:20:15.775Z,30.20
2018-07-26T21:22:43.039Z,30.00
2018-07-26T21:25:10.324Z,30.10
2018-07-26T21:27:37.615Z,29.90
2018-07-26T21:30:06.508Z,29.90
2018-07-26T21:32:33.760Z,29.90
2018-07-26T21:35:00.980Z,29.80
2018-07-26T21:37:28.403Z,29.80
2018-07-26T21:39:55.675Z,29.90
2018-07-26T21:42:24.083Z,29.90
2018-07-26T21:44:51.524Z,29.80
2018-07-26T21:47:18.756Z,29.80
2018-07-26T21:49:47.035Z,29.70
2018-07-26T21:52:14.280Z,29.70
2018-07-26T21:54:41.647Z,29.70
2018-07-26T21:57:08.963Z,29.60
2018-07-26T21:59:36.179Z,29.50
2018-07-26T22:02:04.112Z,29.50
2018-07-26T22:04:31.355Z,29.40
2018-07-26T22:06:58.572Z,29.30
2018-07-26T22:09:26.002Z,29.20
2018-07-26T22:11:53.455Z,29.20
2018-07-26T22:14:22.010Z,29.20
2018-07-26T22:16:49.419Z,29.00
2018-07-26T22:21:44.514Z,28.80
2018-07-26T22:24:11.932Z,28.70
2018-07-26T22:26:39.538Z,28.70
2018-07-26T22:29:07.056Z,28.60
2018-07-26T22:31:34.567Z,28.60
2018-07-26T22:34:02.069Z,28.50
2018-07-26T22:38:57.003Z,28.40
2018-07-26T22:41:24.505Z,28.30
2018-07-26T22:43:51.971Z,28.20
2018-07-26T22:46:19.416Z,28.10
2018-07-26T22:48:46.943Z,28.00
2018-07-26T22:51:14.367Z,27.90
2018-07-26T22:53:41.795Z,27.80
2018-07-26T22:56:09.248Z,27.70
2018-07-26T22:58:36.683Z,27.60
2018-07-26T23:01:04.159Z,27.50
2018-07-26T23:03:31.619Z,27.40
2018-07-26T23:05:59.031Z,27.30
2018-07-26T23:08:26.460Z,27.20
2018-07-26T23:10:53.926Z,27.10
2018-07-26T23:13:21.460Z,27.00
2018-07-26T23:15:48.903Z,26.90
2018-07-26T23:20:43.814Z,26.70
2018-07-26T23:23:11.250Z,26.70
2018-07-26T23:25:38.755Z,26.60
2018-07-26T23:28:06.195Z,26.50
2018-07-26T23:30:33.627Z,26.40
2018-07-26T23:33:01.036Z,26.20
2018-07-26T23:35:28.447Z,26.20
2018-07-26T23:37:55.898Z,26.20
2018-07-26T23:40:23.383Z,26.10
2018-07-26T23:45:18.340Z,26.00
2018-07-26T23:47:45.843Z,26.00
2018-07-26T23:50:13.223Z,26.00
2018-07-26T23:52:40.695Z,25.90
2018-07-26T23:55:08.171Z,26.00
2018-07-26T23:57:35.707Z,25.90
